createdAt,value
2022-12-04T00:00:08.476Z,1.65
2022-12-04T00:01:08.508Z,1.62
2022-12-04T00:02:08.470Z,1.55
2022-12-04T00:03:08.477Z,1.62
2022-12-04T00:04:08.468Z,1.62
2022-12-04T00:05:08.452Z,1.60
2022-12-04T00:06:08.452Z,1.62
2022-12-04T00:07:08.378Z,1.58
2022-12-04T00:08:08.417Z,1.58
2022-12-04T00:09:08.397Z,1.62
2022-12-04T00:10:08.367Z,1.60
2022-12-04T00:11:08.383Z,1.63
2022-12-04T00:12:08.320Z,1.55
2022-12-04T00:13:08.319Z,1.48
2022-12-04T00:14:08.341Z,1.51
2022-12-04T00:15:25.612Z,1.62
2022-12-04T00:16:09.310Z,1.63
2022-12-04T00:17:08.326Z,1.60
2022-12-04T00:18:08.268Z,1.69
2022-12-04T00:19:08.265Z,1.63
2022-12-04T00:20:08.241Z,1.65
2022-12-04T00:21:08.239Z,1.65
2022-12-04T00:22:08.218Z,1.65
2022-12-04T00:23:08.248Z,1.65
2022-12-04T00:24:08.192Z,1.66
2022-12-04T00:25:08.172Z,1.66
2022-12-04T00:26:08.173Z,1.65
2022-12-04T00:27:08.178Z,1.66
2022-12-04T00:28:08.154Z,1.66
2022-12-04T00:29:08.191Z,1.60
2022-12-04T00:30:08.135Z,1.55
2022-12-04T00:31:08.145Z,1.60
2022-12-04T00:32:08.204Z,1.60
2022-12-04T00:33:08.119Z,1.62
2022-12-04T00:34:08.449Z,1.62
2022-12-04T00:35:08.058Z,1.50
2022-12-04T00:36:08.072Z,1.41
2022-12-04T00:37:08.057Z,1.44
2022-12-04T00:38:08.044Z,1.47
2022-12-04T00:39:08.058Z,1.52
2022-12-04T00:40:08.034Z,1.41
2022-12-04T00:41:08.082Z,1.51
2022-12-04T00:42:08.015Z,1.44
2022-12-04T00:43:07.990Z,1.47
2022-12-04T00:44:07.996Z,1.44
2022-12-04T00:45:08.004Z,1.37
2022-12-04T00:46:08.041Z,1.37
2022-12-04T00:47:07.938Z,1.42
2022-12-04T00:48:07.921Z,1.48
2022-12-04T00:49:07.921Z,1.51
2022-12-04T00:50:07.949Z,1.40
2022-12-04T00:51:07.894Z,1.41
2022-12-04T00:52:07.871Z,1.45
2022-12-04T00:53:07.856Z,1.45
2022-12-04T00:54:07.861Z,1.41
2022-12-04T00:55:07.866Z,1.29
2022-12-04T00:56:07.824Z,1.34
2022-12-04T00:57:07.828Z,1.36
2022-12-04T00:58:08.027Z,1.32
2022-12-04T00:59:07.791Z,1.41
2022-12-04T01:00:07.794Z,1.32
2022-12-04T01:01:07.886Z,1.33
2022-12-04T01:02:07.806Z,1.36
2022-12-04T01:03:07.920Z,1.34
2022-12-04T01:04:07.753Z,1.51
2022-12-04T01:05:07.732Z,1.52
2022-12-04T01:06:07.750Z,1.40
2022-12-04T01:07:07.745Z,1.42
2022-12-04T01:08:07.851Z,1.47
2022-12-04T01:09:07.747Z,1.47
2022-12-04T01:10:07.667Z,1.48
2022-12-04T01:11:07.669Z,1.48
2022-12-04T01:12:07.667Z,1.63
2022-12-04T01:13:07.684Z,1.58
2022-12-04T01:14:07.626Z,1.45
2022-12-04T01:15:07.620Z,1.59
2022-12-04T01:16:07.731Z,1.52
2022-12-04T01:17:07.632Z,1.62
2022-12-04T01:18:07.623Z,1.44
2022-12-04T01:19:07.567Z,1.52
2022-12-04T01:20:07.596Z,1.54
2022-12-04T01:21:07.556Z,1.58
2022-12-04T01:22:07.560Z,1.48
2022-12-04T01:23:07.536Z,1.47
2022-12-04T01:24:07.546Z,1.47
2022-12-04T01:25:07.509Z,1.42
2022-12-04T01:26:07.492Z,1.51
2022-12-04T01:27:07.473Z,1.59
2022-12-04T01:28:07.489Z,1.42
2022-12-04T01:29:07.476Z,1.50
2022-12-04T01:30:07.496Z,1.48
2022-12-04T01:31:07.430Z,1.41
2022-12-04T01:32:07.465Z,1.54
2022-12-04T01:33:07.419Z,1.54
2022-12-04T01:34:07.410Z,1.40
2022-12-04T01:35:07.417Z,1.45
2022-12-04T01:36:07.422Z,1.41
2022-12-04T01:37:07.425Z,1.42
2022-12-04T01:38:07.390Z,1.60
2022-12-04T01:39:07.349Z,1.50
2022-12-04T01:40:07.351Z,1.58
2022-12-04T01:41:07.363Z,1.60
2022-12-04T01:42:07.306Z,1.55
2022-12-04T01:43:07.324Z,1.54
2022-12-04T01:44:07.283Z,1.58
2022-12-04T01:45:07.297Z,1.55
2022-12-04T01:46:07.432Z,1.65
2022-12-04T01:47:07.256Z,1.65
2022-12-04T01:48:07.402Z,1.60
2022-12-04T01:49:07.284Z,1.62
2022-12-04T01:50:07.272Z,1.59
2022-12-04T01:51:07.217Z,1.63
2022-12-04T01:52:07.238Z,1.66
2022-12-04T01:53:07.180Z,1.62
2022-12-04T01:54:07.198Z,1.60
2022-12-04T01:55:07.164Z,1.68
2022-12-04T01:56:07.166Z,1.63
2022-12-04T01:57:07.214Z,1.51
2022-12-04T01:58:07.167Z,1.60
2022-12-04T01:59:07.115Z,1.65
2022-12-04T02:00:07.107Z,1.68
2022-12-04T02:01:09.094Z,1.65
2022-12-04T02:02:07.239Z,1.66
2022-12-04T02:03:07.161Z,1.72
2022-12-04T02:04:07.102Z,1.70
2022-12-04T02:05:07.061Z,1.73
2022-12-04T02:06:07.059Z,1.79
2022-12-04T02:07:07.052Z,1.76
2022-12-04T02:08:07.116Z,1.72
2022-12-04T02:09:07.034Z,1.83
2022-12-04T02:10:07.012Z,1.79
2022-12-04T02:11:07.084Z,1.79
2022-12-04T02:12:07.015Z,1.79
2022-12-04T02:13:07.002Z,1.87
2022-12-04T02:14:06.968Z,1.81
2022-12-04T02:15:06.937Z,1.83
2022-12-04T02:16:06.993Z,1.81
2022-12-04T02:17:06.994Z,1.87
2022-12-04T02:18:06.956Z,1.84
2022-12-04T02:19:06.905Z,1.86
2022-12-04T02:20:06.901Z,1.86
2022-12-04T02:21:06.866Z,1.86
2022-12-04T02:22:06.919Z,1.77
2022-12-04T02:23:06.872Z,1.87
2022-12-04T02:24:06.865Z,1.88
2022-12-04T02:25:06.835Z,1.83
2022-12-04T02:26:06.870Z,1.84
2022-12-04T02:27:06.799Z,1.83
2022-12-04T02:28:06.869Z,1.88
2022-12-04T02:29:06.779Z,1.88
2022-12-04T02:30:06.803Z,1.84
2022-12-04T02:31:06.900Z,1.70
2022-12-04T02:32:06.782Z,1.77
2022-12-04T02:33:06.733Z,1.70
2022-12-04T02:34:06.740Z,1.70
2022-12-04T02:35:06.735Z,1.69
2022-12-04T02:36:06.753Z,1.69
2022-12-04T02:37:06.724Z,1.69
2022-12-04T02:38:06.724Z,1.66
2022-12-04T02:39:06.666Z,1.77
2022-12-04T02:40:06.669Z,1.70
2022-12-04T02:41:06.680Z,1.69
2022-12-04T02:42:06.681Z,1.72
2022-12-04T02:43:06.651Z,1.79
2022-12-04T02:44:06.668Z,1.77
2022-12-04T02:45:06.596Z,1.81
2022-12-04T02:46:06.657Z,1.83
2022-12-04T02:47:06.586Z,1.76
2022-12-04T02:48:06.622Z,1.84
2022-12-04T02:49:06.594Z,1.87
2022-12-04T02:50:06.541Z,1.83
2022-12-04T02:51:06.590Z,1.88
2022-12-04T02:52:06.549Z,1.87
2022-12-04T02:53:06.533Z,1.93
2022-12-04T02:54:06.533Z,1.93
2022-12-04T02:55:08.589Z,1.93
2022-12-04T02:56:06.473Z,1.84
2022-12-04T02:57:06.485Z,1.93
2022-12-04T02:58:06.479Z,1.95
2022-12-04T02:59:06.467Z,1.91
2022-12-04T03:00:06.464Z,1.93
2022-12-04T03:01:06.477Z,1.84
2022-12-04T03:02:06.500Z,1.90
2022-12-04T03:03:06.418Z,1.87
2022-12-04T03:04:06.397Z,1.86
2022-12-04T03:05:06.428Z,1.81
2022-12-04T03:06:06.442Z,1.93
2022-12-04T03:07:06.351Z,1.93
2022-12-04T03:08:06.405Z,1.91
2022-12-04T03:09:06.331Z,1.88
2022-12-04T03:10:06.328Z,1.91
2022-12-04T03:11:06.346Z,1.88
2022-12-04T03:12:06.338Z,1.86
2022-12-04T03:13:06.285Z,1.95
2022-12-04T03:14:06.306Z,1.84
2022-12-04T03:15:06.292Z,1.86
2022-12-04T03:16:06.296Z,1.91
2022-12-04T03:17:06.363Z,1.84
2022-12-04T03:18:06.235Z,1.86
2022-12-04T03:19:06.217Z,1.90
2022-12-04T03:20:07.054Z,1.95
2022-12-04T03:21:06.209Z,1.81
2022-12-04T03:22:06.238Z,2.00
2022-12-04T03:23:06.176Z,1.91
2022-12-04T03:24:06.191Z,2.00
2022-12-04T03:25:06.155Z,2.02
2022-12-04T03:26:06.168Z,2.05
2022-12-04T03:27:06.150Z,2.00
2022-12-04T03:28:06.155Z,1.91
2022-12-04T03:29:06.151Z,1.98
2022-12-04T03:30:06.117Z,2.06
2022-12-04T03:31:06.158Z,1.98
2022-12-04T03:32:06.112Z,1.99
2022-12-04T03:33:06.073Z,1.95
2022-12-04T03:34:06.094Z,1.98
2022-12-04T03:35:06.038Z,2.03
2022-12-04T03:36:06.032Z,2.06
2022-12-04T03:37:06.067Z,2.02
2022-12-04T03:38:06.015Z,1.98
2022-12-04T03:39:06.016Z,2.05
2022-12-04T03:40:06.028Z,2.07
2022-12-04T03:41:06.027Z,2.09
2022-12-04T03:42:06.043Z,2.09
2022-12-04T03:43:05.949Z,2.05
2022-12-04T03:44:05.955Z,1.99
2022-12-04T03:45:05.966Z,2.09
2022-12-04T03:46:06.092Z,2.06
2022-12-04T03:47:05.903Z,2.03
2022-12-04T03:48:05.904Z,2.03
2022-12-04T03:49:05.939Z,2.03
2022-12-04T03:50:05.882Z,2.00
2022-12-04T03:51:05.894Z,2.03
2022-12-04T03:52:05.848Z,2.06
2022-12-04T03:53:05.871Z,2.02
2022-12-04T03:54:05.847Z,2.03
2022-12-04T03:55:05.831Z,2.06
2022-12-04T03:56:05.841Z,2.12
2022-12-04T03:57:05.827Z,2.17
2022-12-04T03:58:05.847Z,2.14
2022-12-04T03:59:05.784Z,2.20
2022-12-04T04:00:05.761Z,2.10
2022-12-04T04:01:05.835Z,2.07
2022-12-04T04:02:06.054Z,2.12
2022-12-04T04:03:05.996Z,1.99
2022-12-04T04:04:05.728Z,2.02
2022-12-04T04:05:05.714Z,2.14
2022-12-04T04:06:05.702Z,2.07
2022-12-04T04:07:05.728Z,2.02
2022-12-04T04:08:05.716Z,2.18
2022-12-04T04:09:05.658Z,2.14
2022-12-04T04:10:05.651Z,2.17
2022-12-04T04:11:05.652Z,2.16
2022-12-04T04:12:05.668Z,2.10
2022-12-04T04:13:05.630Z,2.21
2022-12-04T04:14:05.638Z,2.21
2022-12-04T04:15:05.590Z,2.20
2022-12-04T04:16:05.737Z,2.09
2022-12-04T04:17:05.568Z,2.17
2022-12-04T04:18:05.596Z,2.12
2022-12-04T04:19:05.587Z,2.16
2022-12-04T04:20:05.577Z,2.10
2022-12-04T04:21:05.582Z,2.12
2022-12-04T04:22:05.522Z,2.14
2022-12-04T04:23:05.508Z,2.16
2022-12-04T04:24:05.519Z,2.10
2022-12-04T04:25:05.519Z,2.16
2022-12-04T04:26:06.036Z,2.17
2022-12-04T04:27:05.459Z,2.10
2022-12-04T04:28:05.479Z,2.17
2022-12-04T04:29:05.477Z,2.10
2022-12-04T04:30:05.477Z,2.07
2022-12-04T04:31:05.488Z,2.14
2022-12-04T04:32:05.400Z,2.14
2022-12-04T04:33:05.392Z,2.17
2022-12-04T04:34:05.406Z,2.16
2022-12-04T04:35:05.417Z,2.18
2022-12-04T04:36:05.378Z,2.17
2022-12-04T04:37:05.351Z,2.10
2022-12-04T04:38:05.338Z,2.10
2022-12-04T04:39:05.347Z,2.14
2022-12-04T04:40:05.312Z,2.14
2022-12-04T04:41:05.327Z,2.17
2022-12-04T04:42:05.319Z,2.14
2022-12-04T04:43:05.281Z,2.17
2022-12-04T04:44:05.330Z,2.18
2022-12-04T04:45:05.274Z,2.18
2022-12-04T04:46:05.333Z,2.18
2022-12-04T04:47:05.263Z,2.30
2022-12-04T04:48:05.273Z,2.23
2022-12-04T04:49:05.227Z,2.24
2022-12-04T04:50:05.224Z,2.27
2022-12-04T04:51:05.190Z,2.25
2022-12-04T04:52:05.221Z,2.18
2022-12-04T04:53:05.200Z,2.21
2022-12-04T04:54:05.174Z,2.12
2022-12-04T04:55:05.159Z,2.09
2022-12-04T04:56:05.141Z,2.12
2022-12-04T04:57:05.149Z,2.14
2022-12-04T04:58:05.152Z,2.24
2022-12-04T04:59:05.140Z,2.17
2022-12-04T05:00:05.092Z,2.25
2022-12-04T05:01:05.099Z,2.28
2022-12-04T05:02:05.186Z,2.27
2022-12-04T05:03:05.189Z,2.27
2022-12-04T05:04:05.071Z,2.27
2022-12-04T05:05:05.081Z,2.27
2022-12-04T05:06:05.075Z,2.27
2022-12-04T05:07:05.047Z,2.23
2022-12-04T05:08:05.093Z,2.30
2022-12-04T05:09:05.003Z,2.30
2022-12-04T05:10:05.008Z,2.25
2022-12-04T05:11:05.019Z,2.25
2022-12-04T05:12:05.013Z,2.24
2022-12-04T05:13:04.950Z,2.34
2022-12-04T05:14:04.961Z,2.30
2022-12-04T05:15:04.963Z,2.31
2022-12-04T05:16:05.992Z,2.38
2022-12-04T05:17:10.758Z,2.30
2022-12-04T05:18:05.916Z,2.35
2022-12-04T05:19:04.892Z,2.30
2022-12-04T05:20:04.875Z,2.31
2022-12-04T05:21:04.881Z,2.39
2022-12-04T05:22:04.876Z,2.35
2022-12-04T05:23:04.885Z,2.28
2022-12-04T05:24:04.820Z,2.36
2022-12-04T05:25:04.834Z,2.27
2022-12-04T05:26:04.812Z,2.38
2022-12-04T05:27:04.821Z,2.30
2022-12-04T05:28:04.819Z,2.41
2022-12-04T05:29:04.765Z,2.41
2022-12-04T05:30:04.831Z,2.38
2022-12-04T05:31:04.860Z,2.42
2022-12-04T05:32:04.750Z,2.42
2022-12-04T05:33:04.765Z,2.49
2022-12-04T05:34:04.707Z,2.48
2022-12-04T05:35:10.630Z,2.49
2022-12-04T05:36:05.699Z,2.45
2022-12-04T05:37:04.684Z,2.39
2022-12-04T05:38:04.745Z,2.42
2022-12-04T05:39:04.696Z,2.46
2022-12-04T05:40:04.644Z,2.31
2022-12-04T05:41:04.654Z,2.27
2022-12-04T05:42:04.624Z,2.31
2022-12-04T05:43:04.623Z,2.23
2022-12-04T05:44:04.627Z,2.24
2022-12-04T05:45:04.641Z,2.28
2022-12-04T05:46:04.575Z,2.36
2022-12-04T05:47:04.640Z,2.35
2022-12-04T05:48:05.577Z,2.30
2022-12-04T05:49:04.564Z,2.35
2022-12-04T05:50:04.568Z,2.30
2022-12-04T05:51:04.581Z,2.41
2022-12-04T05:52:04.505Z,2.35
2022-12-04T05:53:04.512Z,2.36
2022-12-04T05:54:04.543Z,2.39
2022-12-04T05:55:04.497Z,2.41
2022-12-04T05:56:04.510Z,2.35
2022-12-04T05:57:04.500Z,2.38
2022-12-04T05:58:04.468Z,2.42
2022-12-04T05:59:04.435Z,2.43
2022-12-04T06:00:04.437Z,2.48
2022-12-04T06:01:04.438Z,2.45
2022-12-04T06:02:04.538Z,2.46
2022-12-04T06:03:04.422Z,2.41
2022-12-04T06:04:04.379Z,2.38
2022-12-04T06:05:04.392Z,2.31
2022-12-04T06:06:04.371Z,2.38
2022-12-04T06:07:04.378Z,2.31
2022-12-04T06:08:04.365Z,2.31
2022-12-04T06:09:04.389Z,2.34
2022-12-04T06:10:04.341Z,2.31
2022-12-04T06:11:04.305Z,2.39
2022-12-04T06:12:04.341Z,2.36
2022-12-04T06:13:04.310Z,2.38
2022-12-04T06:14:04.259Z,2.34
2022-12-04T06:15:04.256Z,2.30
2022-12-04T06:16:04.282Z,2.41
2022-12-04T06:17:04.276Z,2.42
2022-12-04T06:18:04.383Z,2.39
2022-12-04T06:19:04.211Z,2.34
2022-12-04T06:20:09.575Z,2.45
2022-12-04T06:21:05.273Z,2.43
2022-12-04T06:22:04.200Z,2.39
2022-12-04T06:23:04.216Z,2.36
2022-12-04T06:24:04.178Z,2.38
2022-12-04T06:25:04.139Z,2.43
2022-12-04T06:26:07.090Z,2.43
2022-12-04T06:27:26.722Z,2.42
2022-12-04T06:28:05.137Z,2.41
2022-12-04T06:29:04.120Z,2.42
2022-12-04T06:30:05.046Z,2.41
2022-12-04T06:31:04.071Z,2.38
2022-12-04T06:32:04.204Z,2.39
2022-12-04T06:33:04.069Z,2.43
2022-12-04T06:34:04.056Z,2.48
2022-12-04T06:35:04.058Z,2.45
2022-12-04T06:36:04.022Z,2.38
2022-12-04T06:37:04.060Z,2.46
2022-12-04T06:38:04.000Z,2.38
2022-12-04T06:39:04.013Z,2.49
2022-12-04T06:40:04.022Z,2.39
2022-12-04T06:41:04.098Z,2.49
2022-12-04T06:42:03.969Z,2.42
2022-12-04T06:43:03.935Z,2.39
2022-12-04T06:44:04.007Z,2.43
2022-12-04T06:45:03.954Z,2.46
2022-12-04T06:46:04.034Z,2.49
2022-12-04T06:47:03.935Z,2.52
2022-12-04T06:48:03.880Z,2.52
2022-12-04T06:49:03.873Z,2.45
2022-12-04T06:50:04.102Z,2.42
2022-12-04T06:51:03.866Z,2.49
2022-12-04T06:52:03.909Z,2.56
2022-12-04T06:53:08.293Z,2.43
2022-12-04T06:54:03.815Z,2.57
2022-12-04T06:55:03.834Z,2.56
2022-12-04T06:56:03.828Z,2.49
2022-12-04T06:57:03.799Z,2.54
2022-12-04T06:58:03.826Z,2.56
2022-12-04T06:59:03.765Z,2.56
2022-12-04T07:00:03.761Z,2.54
2022-12-04T07:01:04.122Z,2.54
2022-12-04T07:02:03.803Z,2.53
2022-12-04T07:03:03.769Z,2.53
2022-12-04T07:04:03.783Z,2.56
2022-12-04T07:05:03.693Z,2.49
2022-12-04T07:06:03.682Z,2.56
2022-12-04T07:07:03.689Z,2.54
2022-12-04T07:08:03.756Z,2.53
2022-12-04T07:09:03.683Z,2.52
2022-12-04T07:10:03.687Z,2.54
2022-12-04T07:11:03.626Z,2.53
2022-12-04T07:12:03.619Z,2.56
2022-12-04T07:13:03.623Z,2.60
2022-12-04T07:14:03.663Z,2.53
2022-12-04T07:15:03.623Z,2.54
2022-12-04T07:16:03.664Z,2.54
2022-12-04T07:17:03.628Z,2.52
2022-12-04T07:18:03.583Z,2.48
2022-12-04T07:19:03.579Z,2.46
2022-12-04T07:20:03.551Z,2.39
2022-12-04T07:21:03.554Z,2.52
2022-12-04T07:22:03.558Z,2.48
2022-12-04T07:23:07.211Z,2.45
2022-12-04T07:24:03.508Z,2.53
2022-12-04T07:25:03.514Z,2.54
2022-12-04T07:26:03.489Z,2.53
2022-12-04T07:27:03.456Z,2.56
2022-12-04T07:28:03.458Z,2.57
2022-12-04T07:29:03.427Z,2.54
2022-12-04T07:30:03.636Z,2.56
2022-12-04T07:31:03.415Z,2.54
2022-12-04T07:32:03.640Z,2.52
2022-12-04T07:33:03.379Z,2.57
2022-12-04T07:34:03.381Z,2.56
2022-12-04T07:35:03.396Z,2.60
2022-12-04T07:36:03.370Z,2.57
2022-12-04T07:37:03.385Z,2.60
2022-12-04T07:38:03.366Z,2.52
2022-12-04T07:39:03.367Z,2.49
2022-12-04T07:40:03.312Z,2.52
2022-12-04T07:41:03.305Z,2.57
2022-12-04T07:42:03.301Z,2.61
2022-12-04T07:43:03.295Z,2.49
2022-12-04T07:44:03.299Z,2.54
2022-12-04T07:45:03.258Z,2.61
2022-12-04T07:46:03.366Z,2.54
2022-12-04T07:47:03.322Z,2.52
2022-12-04T07:48:03.228Z,2.41
2022-12-04T07:49:03.228Z,2.30
2022-12-04T07:50:03.194Z,2.30
2022-12-04T07:51:03.177Z,2.35
2022-12-04T07:52:03.196Z,2.27
2022-12-04T07:53:03.159Z,2.28
2022-12-04T07:54:04.442Z,2.31
2022-12-04T07:55:03.170Z,2.31
2022-12-04T07:56:03.124Z,2.28
2022-12-04T07:57:03.135Z,2.28
2022-12-04T07:58:03.139Z,2.30
2022-12-04T07:59:03.127Z,2.34
2022-12-04T08:00:03.149Z,2.38
2022-12-04T08:01:03.161Z,2.39
2022-12-04T08:02:03.084Z,2.27
2022-12-04T08:03:03.049Z,2.41
2022-12-04T08:04:03.256Z,2.39
2022-12-04T08:05:03.105Z,2.49
2022-12-04T08:06:03.044Z,2.43
2022-12-04T08:07:03.078Z,2.43
2022-12-04T08:08:11.654Z,2.39
2022-12-04T08:09:09.251Z,2.57
2022-12-04T08:10:03.990Z,2.49
2022-12-04T08:11:02.980Z,2.54
2022-12-04T08:12:02.992Z,2.60
2022-12-04T08:13:02.934Z,2.54
2022-12-04T08:14:02.946Z,2.60
2022-12-04T08:15:02.934Z,2.74
2022-12-04T08:16:02.947Z,2.67
2022-12-04T08:17:02.964Z,2.67
2022-12-04T08:18:02.953Z,2.69
2022-12-04T08:19:02.866Z,2.64
2022-12-04T08:20:02.880Z,2.71
2022-12-04T08:21:02.953Z,2.72
2022-12-04T08:22:02.850Z,2.79
2022-12-04T08:23:02.856Z,2.69
2022-12-04T08:24:02.836Z,2.74
2022-12-04T08:25:02.805Z,2.81
2022-12-04T08:26:02.819Z,2.82
2022-12-04T08:27:02.823Z,2.79
2022-12-04T08:28:02.788Z,2.69
2022-12-04T08:29:02.823Z,2.64
2022-12-04T08:30:02.745Z,2.67
2022-12-04T08:31:02.860Z,2.69
2022-12-04T08:32:03.163Z,2.67
2022-12-04T08:33:03.163Z,2.67
2022-12-04T08:34:02.757Z,2.67
2022-12-04T08:35:02.762Z,2.72
2022-12-04T08:36:02.723Z,2.69
2022-12-04T08:37:02.739Z,2.69
2022-12-04T08:38:02.685Z,2.57
2022-12-04T08:39:02.661Z,2.59
2022-12-04T08:40:02.666Z,2.53
2022-12-04T08:41:02.621Z,2.63
2022-12-04T08:42:02.662Z,2.54
2022-12-04T08:43:02.623Z,2.63
2022-12-04T08:44:02.617Z,2.69
2022-12-04T08:45:02.592Z,2.66
2022-12-04T08:46:02.681Z,2.82
2022-12-04T08:47:02.602Z,2.71
2022-12-04T08:48:02.542Z,2.69
2022-12-04T08:49:02.546Z,2.71
2022-12-04T08:50:02.564Z,2.63
2022-12-04T08:51:02.541Z,2.69
2022-12-04T08:52:02.552Z,2.64
2022-12-04T08:53:02.503Z,2.66
2022-12-04T08:54:02.477Z,2.72
2022-12-04T08:55:02.660Z,2.71
2022-12-04T08:56:02.480Z,2.64
2022-12-04T08:57:02.512Z,2.75
2022-12-04T08:58:02.429Z,2.71
2022-12-04T08:59:02.417Z,2.63
2022-12-04T09:00:02.508Z,2.71
2022-12-04T09:01:02.457Z,2.69
2022-12-04T09:02:02.491Z,2.75
2022-12-04T09:03:02.420Z,2.84
2022-12-04T09:04:02.407Z,2.79
2022-12-04T09:05:02.349Z,2.79
2022-12-04T09:06:02.470Z,2.82
2022-12-04T09:07:02.352Z,2.75
2022-12-04T09:08:02.510Z,2.92
2022-12-04T09:09:02.347Z,2.84
2022-12-04T09:10:02.301Z,2.87
2022-12-04T09:11:02.285Z,2.85
2022-12-04T09:12:02.297Z,2.82
2022-12-04T09:13:02.321Z,2.87
2022-12-04T09:14:02.270Z,2.92
2022-12-04T09:15:02.315Z,2.93
2022-12-04T09:16:02.327Z,2.78
2022-12-04T09:17:02.241Z,2.85
2022-12-04T09:18:02.246Z,2.75
2022-12-04T09:19:02.226Z,2.92
2022-12-04T09:20:02.547Z,2.85
2022-12-04T09:21:02.198Z,2.77
2022-12-04T09:22:02.188Z,2.92
2022-12-04T09:23:04.419Z,2.85
2022-12-04T09:24:02.180Z,2.84
2022-12-04T09:25:02.195Z,2.82
2022-12-04T09:26:02.158Z,2.85
2022-12-04T09:27:02.225Z,2.90
2022-12-04T09:28:02.098Z,2.92
2022-12-04T09:29:02.100Z,2.90
2022-12-04T09:30:02.133Z,2.95
2022-12-04T09:31:02.170Z,2.84
2022-12-04T09:32:02.122Z,2.85
2022-12-04T09:33:02.039Z,2.89
2022-12-04T09:34:02.041Z,2.90
2022-12-04T09:35:02.041Z,2.89
2022-12-04T09:36:02.041Z,2.95
2022-12-04T09:37:02.089Z,2.93
2022-12-04T09:38:02.058Z,2.90
2022-12-04T09:39:01.973Z,2.93
2022-12-04T09:40:01.986Z,2.99
2022-12-04T09:41:01.961Z,2.85
2022-12-04T09:42:02.011Z,2.93
2022-12-04T09:43:01.975Z,2.90
2022-12-04T09:44:01.973Z,2.96
2022-12-04T09:45:01.920Z,2.99
2022-12-04T09:46:01.939Z,3.08
2022-12-04T09:47:02.124Z,3.08
2022-12-04T09:48:01.915Z,3.05
2022-12-04T09:49:01.905Z,3.11
2022-12-04T09:50:01.852Z,3.10
2022-12-04T09:51:01.850Z,3.10
2022-12-04T09:52:01.943Z,3.08
2022-12-04T09:53:01.871Z,3.17
2022-12-04T09:54:01.876Z,3.11
2022-12-04T09:55:01.797Z,3.10
2022-12-04T09:56:01.787Z,3.11
2022-12-04T09:57:01.977Z,3.17
2022-12-04T09:58:02.588Z,3.05
2022-12-04T09:59:01.791Z,3.03
2022-12-04T10:00:01.884Z,3.08
2022-12-04T10:01:01.727Z,3.13
2022-12-04T10:02:01.719Z,3.10
2022-12-04T10:03:01.833Z,3.05
2022-12-04T10:04:06.051Z,3.21
2022-12-04T10:05:01.732Z,3.17
2022-12-04T10:06:01.673Z,3.21
2022-12-04T10:07:01.660Z,3.18
2022-12-04T10:08:01.747Z,3.26
2022-12-04T10:09:01.652Z,3.32
2022-12-04T10:10:01.685Z,3.36
2022-12-04T10:11:01.659Z,3.39
2022-12-04T10:12:01.604Z,3.39
2022-12-04T10:13:01.595Z,3.29
2022-12-04T10:14:01.618Z,3.40
2022-12-04T10:15:01.600Z,3.36
2022-12-04T10:16:01.655Z,3.26
2022-12-04T10:17:01.591Z,3.20
2022-12-04T10:18:01.552Z,3.10
2022-12-04T10:19:01.622Z,3.10
2022-12-04T10:20:01.528Z,3.02
2022-12-04T10:21:01.536Z,2.95
2022-12-04T10:22:01.539Z,2.90
2022-12-04T10:23:01.480Z,2.92
2022-12-04T10:24:01.472Z,2.93
2022-12-04T10:25:01.466Z,2.96
2022-12-04T10:26:01.498Z,2.93
2022-12-04T10:27:01.451Z,3.00
2022-12-04T10:28:01.493Z,3.08
2022-12-04T10:29:01.412Z,3.05
2022-12-04T10:30:01.403Z,3.14
2022-12-04T10:31:01.457Z,3.05
2022-12-04T10:32:01.434Z,3.05
2022-12-04T10:33:01.389Z,3.03
2022-12-04T10:34:01.395Z,3.13
2022-12-04T10:35:01.361Z,3.18
2022-12-04T10:36:01.360Z,3.10
2022-12-04T10:37:01.337Z,3.03
2022-12-04T10:38:01.356Z,2.93
2022-12-04T10:39:01.373Z,2.93
2022-12-04T10:40:01.292Z,3.00
2022-12-04T10:41:01.278Z,3.14
2022-12-04T10:42:01.293Z,3.10
2022-12-04T10:43:01.286Z,3.13
2022-12-04T10:44:01.284Z,3.14
2022-12-04T10:45:01.271Z,3.24
2022-12-04T10:46:01.284Z,3.15
2022-12-04T10:47:01.298Z,3.06
2022-12-04T10:48:01.294Z,3.11
2022-12-04T10:49:01.234Z,3.15
2022-12-04T10:50:01.197Z,2.99
2022-12-04T10:51:01.193Z,2.93
2022-12-04T10:52:01.216Z,3.05
2022-12-04T10:53:01.149Z,3.06
2022-12-04T10:54:01.154Z,3.11
2022-12-04T10:55:01.131Z,3.18
2022-12-04T10:56:01.170Z,3.11
2022-12-04T10:57:01.150Z,3.14
2022-12-04T10:58:01.127Z,3.13
2022-12-04T10:59:01.076Z,3.11
2022-12-04T11:00:01.094Z,3.21
2022-12-04T11:01:01.084Z,3.11
2022-12-04T11:02:06.327Z,3.20
2022-12-04T11:03:02.135Z,3.18
2022-12-04T11:04:01.027Z,3.21
2022-12-04T11:05:01.021Z,3.18
2022-12-04T11:06:01.035Z,3.17
2022-12-04T11:07:01.039Z,3.15
2022-12-04T11:08:01.141Z,3.17
2022-12-04T11:09:00.975Z,3.18
2022-12-04T11:10:00.957Z,3.29
2022-12-04T11:11:01.168Z,3.23
2022-12-04T11:12:00.972Z,3.28
2022-12-04T11:13:00.946Z,3.28
2022-12-04T11:14:00.972Z,3.21
2022-12-04T11:15:00.899Z,3.23
2022-12-04T11:16:01.050Z,3.26
2022-12-04T11:17:00.905Z,3.14
2022-12-04T11:18:00.882Z,3.20
2022-12-04T11:19:00.885Z,3.20
2022-12-04T11:20:00.851Z,3.24
2022-12-04T11:21:00.858Z,3.21
2022-12-04T11:22:00.846Z,3.28
2022-12-04T11:23:00.817Z,3.26
2022-12-04T11:24:00.820Z,3.32
2022-12-04T11:25:00.827Z,3.31
2022-12-04T11:26:05.970Z,3.29
2022-12-04T11:27:01.804Z,3.29
2022-12-04T11:28:00.762Z,3.32
2022-12-04T11:29:00.748Z,3.32
2022-12-04T11:30:00.770Z,3.32
2022-12-04T11:31:00.828Z,3.23
2022-12-04T11:32:07.148Z,3.39
2022-12-04T11:33:01.736Z,3.32
2022-12-04T11:34:00.711Z,3.39
2022-12-04T11:35:00.688Z,3.29
2022-12-04T11:36:00.714Z,3.20
2022-12-04T11:37:00.655Z,3.15
2022-12-04T11:38:00.649Z,3.20
2022-12-04T11:39:00.644Z,3.08
2022-12-04T11:40:00.645Z,3.20
2022-12-04T11:41:00.659Z,3.11
2022-12-04T11:42:00.637Z,3.10
2022-12-04T11:43:00.588Z,3.11
2022-12-04T11:44:01.093Z,3.15
2022-12-04T11:45:00.568Z,3.17
2022-12-04T11:46:00.605Z,3.11
2022-12-04T11:47:00.684Z,3.10
2022-12-04T11:48:00.569Z,3.06
2022-12-04T11:49:00.523Z,3.10
2022-12-04T11:50:00.929Z,3.15
2022-12-04T11:51:00.526Z,3.18
2022-12-04T11:52:00.518Z,3.18
2022-12-04T11:53:00.494Z,3.21
2022-12-04T11:54:00.466Z,3.29
2022-12-04T11:55:00.454Z,3.26
2022-12-04T11:56:00.520Z,3.31
2022-12-04T11:57:00.469Z,3.23
2022-12-04T11:58:00.434Z,3.21
2022-12-04T11:59:00.431Z,3.28
2022-12-04T12:00:00.449Z,3.28
2022-12-04T12:01:00.399Z,3.42
2022-12-04T12:02:00.585Z,3.33
2022-12-04T12:03:00.524Z,3.42
2022-12-04T12:04:00.373Z,3.40
2022-12-04T12:05:00.396Z,3.43
2022-12-04T12:06:00.330Z,3.35
2022-12-04T12:07:00.336Z,3.31
2022-12-04T12:08:02.921Z,3.48
2022-12-04T12:09:00.320Z,3.48
2022-12-04T12:10:00.329Z,3.45
2022-12-04T12:11:00.277Z,3.33
2022-12-04T12:12:00.265Z,3.29
2022-12-04T12:13:00.263Z,3.26
2022-12-04T12:14:00.279Z,3.21
2022-12-04T12:15:00.261Z,3.24
2022-12-04T12:16:00.274Z,3.23
2022-12-04T12:17:00.669Z,3.21
2022-12-04T12:18:00.232Z,3.24
2022-12-04T12:19:00.208Z,3.23
2022-12-04T12:20:00.232Z,3.20
2022-12-04T12:21:00.200Z,3.11
2022-12-04T12:22:05.149Z,3.11
2022-12-04T12:23:01.167Z,3.10
2022-12-04T12:24:01.125Z,3.05
2022-12-04T12:25:00.147Z,3.03
2022-12-04T12:26:00.632Z,3.02
2022-12-04T12:27:00.640Z,3.10
2022-12-04T12:28:00.194Z,3.18
2022-12-04T12:29:00.158Z,3.15
2022-12-04T12:30:00.172Z,3.21
2022-12-04T12:31:05.593Z,3.29
2022-12-04T12:32:01.160Z,3.29
2022-12-04T12:33:00.196Z,3.40
2022-12-04T12:34:00.041Z,3.36
2022-12-04T12:35:00.020Z,3.45
2022-12-04T12:36:00.023Z,3.48
2022-12-04T12:38:01.007Z,3.48
2022-12-04T12:39:00.024Z,3.50
2022-12-04T12:40:00.155Z,3.52
2022-12-04T12:40:59.942Z,3.45
2022-12-04T12:41:59.940Z,3.54
2022-12-04T12:42:59.961Z,3.54
2022-12-04T12:43:59.920Z,3.52
2022-12-04T12:44:59.980Z,3.60
2022-12-04T12:45:59.961Z,3.51
2022-12-04T12:46:59.887Z,3.55
2022-12-04T12:47:59.884Z,3.50
2022-12-04T12:48:59.867Z,3.42
2022-12-04T12:49:59.901Z,3.50
2022-12-04T12:51:22.095Z,3.50
2022-12-04T12:52:00.849Z,3.48
2022-12-04T12:52:59.815Z,3.55
2022-12-04T12:53:59.798Z,3.62
2022-12-04T12:54:59.808Z,3.55
2022-12-04T12:55:59.807Z,3.57
2022-12-04T12:56:59.763Z,3.57
2022-12-04T12:57:59.765Z,3.52
2022-12-04T12:58:59.775Z,3.54
2022-12-04T12:59:59.734Z,3.60
2022-12-04T13:00:59.863Z,3.57
2022-12-04T13:02:01.124Z,3.52
2022-12-04T13:02:59.924Z,3.55
2022-12-04T13:03:59.684Z,3.60
2022-12-04T13:04:59.684Z,3.57
2022-12-04T13:05:59.721Z,3.57
2022-12-04T13:06:59.686Z,3.52
2022-12-04T13:07:59.736Z,3.48
2022-12-04T13:08:59.629Z,3.48
2022-12-04T13:09:59.625Z,3.47
2022-12-04T13:10:59.609Z,3.33
2022-12-04T13:11:59.636Z,3.43
2022-12-04T13:12:59.612Z,3.48
2022-12-04T13:13:59.572Z,3.51
2022-12-04T13:14:59.571Z,3.60
2022-12-04T13:15:59.569Z,3.52
2022-12-04T13:16:59.604Z,3.62
2022-12-04T13:17:59.537Z,3.52
2022-12-04T13:18:59.518Z,3.54